Time;durP1;ratioP1;P1;durP2;ratioP2;P2;SDS_P1;SDS_P2;PMS_P1;PMS_P2;Temp;Humidity;BMP_temperature;BMP_pressure;BME280_temperature;BME280_humidity;BME280_pressure;Samples;Min_cycle;Max_cycle;Signal;HPM_P1;HPM_P2
2022/09/18 00:01:40;;;;;;;0.75;0.38;;;;;;;15.45;92.46;92213.09;5080726;28;20074;-35
2022/09/18 00:04:07;;;;;;;1.10;1.08;;;;;;;15.39;92.66;92207.16;5061050;28;20035;-35
2022/09/18 00:06:35;;;;;;;4.43;2.08;;;;;;;15.46;91.78;92211.75;5080787;28;20030;-35
2022/09/18 00:09:01;;;;;;;0.30;0.30;;;;;;;15.42;91.98;92228.16;5084584;28;20039;-35
2022/09/18 00:11:33;;;;;;;0.10;0.10;;;;;;;15.43;91.54;92226.88;5074624;28;20029;-35
2022/09/18 00:13:58;;;;;;;0.20;0.20;;;;;;;15.31;91.69;92225.44;5074857;28;20116;-35
2022/09/18 00:16:24;;;;;;;0.20;0.20;;;;;;;15.16;92.73;92216.28;5079363;28;20118;-35
2022/09/18 00:18:50;;;;;;;0.40;0.40;;;;;;;15.10;93.78;92215.94;5085340;28;20020;-35
2022/09/18 00:21:23;;;;;;;1.75;1.65;;;;;;;15.20;95.30;92215.81;5085933;28;20089;-35
2022/09/18 00:23:49;;;;;;;0.17;0.17;;;;;;;15.12;94.75;92207.00;5068161;28;20040;-35
2022/09/18 00:26:16;;;;;;;0.95;0.75;;;;;;;15.12;94.15;92221.63;5079979;28;20060;-35
2022/09/18 00:28:41;;;;;;;0.10;0.10;;;;;;;15.16;93.20;92224.63;5082897;28;20093;-35
2022/09/18 00:31:19;;;;;;;0.82;0.80;;;;;;;15.16;92.86;92230.19;5067863;28;20500;-35
2022/09/18 00:33:44;;;;;;;0.30;0.30;;;;;;;15.01;93.06;92236.25;5081255;28;20043;-35
2022/09/18 00:36:12;;;;;;;0.40;0.40;;;;;;;15.02;92.64;92240.50;5065694;28;20020;-35
2022/09/18 00:38:38;;;;;;;0.93;0.93;;;;;;;15.09;91.59;92249.91;5085942;28;20423;-35
2022/09/18 00:41:06;;;;;;;0.20;0.20;;;;;;;15.10;90.71;92243.75;5077848;28;20025;-35
2022/09/18 00:43:34;;;;;;;0.57;0.57;;;;;;;15.05;90.67;92250.38;5072765;28;21515;-35
2022/09/18 00:46:26;;;;;;;0.63;0.63;;;;;;;15.05;90.90;92255.94;5053838;28;20040;-35
2022/09/18 00:49:18;;;;;;;0.45;0.45;;;;;;;14.94;91.63;92251.13;5081765;28;20031;-35
2022/09/18 00:51:45;;;;;;;0.50;0.50;;;;;;;14.79;92.19;92250.91;5073988;28;20024;-35
2022/09/18 00:54:13;;;;;;;1.02;1.00;;;;;;;14.89;92.29;92266.13;5059076;28;20103;-35
2022/09/18 00:56:39;;;;;;;0.20;0.20;;;;;;;14.96;90.93;92265.16;5079175;28;20033;-35
2022/09/18 00:59:04;;;;;;;0.35;0.35;;;;;;;14.84;91.50;92272.03;5076737;28;20141;-35
2022/09/18 01:01:29;;;;;;;1.55;1.48;;;;;;;14.88;91.61;92269.50;5054968;28;20178;-35
2022/09/18 01:03:55;;;;;;;0.35;0.35;;;;;;;14.84;91.58;92263.72;5072375;28;20020;-35
2022/09/18 01:06:35;;;;;;;0.20;0.20;;;;;;;14.80;91.44;92261.44;5076279;28;20031;-35
2022/09/18 01:09:14;;;;;;;1.00;0.52;;;;;;;14.75;91.07;92268.06;5062055;28;20060;-35
2022/09/18 01:11:45;;;;;;;;;;;;;;;14.90;88.98;92275.91;5067228;28;20033;-35
2022/09/18 01:14:31;;;;;;;0.90;0.90;;;;;;;14.74;89.30;92283.28;5083580;28;19972;-35
2022/09/18 01:17:28;;;;;;;0.30;0.30;;;;;;;14.58;90.10;92276.03;5081230;28;20036;-35
2022/09/18 01:20:25;;;;;;;0.40;0.40;;;;;;;14.68;89.12;92296.84;5065045;28;20157;-36
2022/09/18 01:23:02;;;;;;;0.52;0.52;;;;;;;14.66;88.81;92307.78;5069619;28;20061;-35
2022/09/18 01:25:59;;;;;;;11.43;0.43;;;;;;;14.51;91.05;92318.66;5083967;28;20032;-35
2022/09/18 01:28:32;;;;;;;0.35;0.30;;;;;;;14.26;91.82;92311.59;5062528;28;20044;-35
2022/09/18 01:31:02;;;;;;;2.28;1.10;;;;;;;14.29;91.49;92331.91;5066731;28;20111;-35
2022/09/18 01:33:38;;;;;;;0.30;0.30;;;;;;;14.10;92.34;92315.38;5073396;28;20032;-34
2022/09/18 01:36:07;;;;;;;0.20;0.20;;;;;;;14.25;92.74;92334.41;5086120;28;20024;-34
2022/09/18 01:38:38;;;;;;;0.50;0.50;;;;;;;14.30;91.79;92352.78;5064606;28;20570;-35
2022/09/18 01:41:18;;;;;;;0.75;0.75;;;;;;;14.33;91.24;92368.97;5067463;28;20032;-34
2022/09/18 01:43:44;;;;;;;0.43;0.43;;;;;;;14.12;88.62;92360.66;5065722;28;20028;-34
2022/09/18 01:46:15;;;;;;;1.95;0.40;;;;;;;14.12;87.26;92362.72;5068379;28;20034;-35
2022/09/18 01:49:04;;;;;;;0.35;0.35;;;;;;;14.17;85.80;92381.81;5060335;28;20032;-35
2022/09/18 01:51:35;;;;;;;0.20;0.20;;;;;;;14.04;85.62;92387.91;5068720;28;20048;-34
2022/09/18 01:54:09;;;;;;;0.10;0.10;;;;;;;13.79;83.92;92400.81;5082830;28;20043;-35
2022/09/18 01:56:38;;;;;;;1.17;1.10;;;;;;;13.74;83.58;92385.94;5064049;28;20023;-34
2022/09/18 01:59:09;;;;;;;0.20;0.20;;;;;;;13.50;83.18;92406.53;5064278;28;20016;-35
2022/09/18 02:01:36;;;;;;;0.68;0.68;;;;;;;13.40;83.96;92412.16;5082024;28;20054;-34
2022/09/18 02:04:07;;;;;;;0.22;0.22;;;;;;;13.27;83.49;92409.16;5075119;28;20039;-34
2022/09/18 02:07:00;;;;;;;1.23;1.13;;;;;;;13.13;83.36;92408.19;5067043;28;20404;-34
2022/09/18 02:09:27;;;;;;;0.10;0.10;;;;;;;12.98;84.41;92417.56;5083470;28;20516;-34
2022/09/18 02:11:53;;;;;;;0.17;0.17;;;;;;;12.94;83.00;92426.34;5083780;28;20038;-35
2022/09/18 02:14:26;;;;;;;0.35;0.35;;;;;;;12.66;82.97;92415.34;5084698;28;20118;-34
2022/09/18 02:16:56;;;;;;;0.20;0.20;;;;;;;12.61;82.72;92441.28;5064691;28;20020;-34
2022/09/18 02:19:27;;;;;;;1.23;0.88;;;;;;;12.45;82.64;92451.94;5065850;28;20024;-34
2022/09/18 02:21:53;;;;;;;0.28;0.28;;;;;;;12.04;83.42;92467.00;5082358;28;20031;-34
2022/09/18 02:24:22;;;;;;;0.30;0.30;;;;;;;12.11;84.03;92469.63;5062782;28;20078;-34
2022/09/18 02:26:50;;;;;;;0.35;0.35;;;;;;;11.97;84.81;92496.25;5065915;28;20049;-34
2022/09/18 02:29:16;;;;;;;0.50;0.50;;;;;;;11.88;85.04;92491.44;5071329;28;20028;-34
2022/09/18 02:31:42;;;;;;;0.20;0.20;;;;;;;11.71;84.55;92486.03;5067390;28;20024;-35
2022/09/18 02:34:08;;;;;;;0.20;0.20;;;;;;;11.61;84.74;92499.06;5088911;28;20035;-35
2022/09/18 02:36:40;;;;;;;0.40;0.40;;;;;;;11.55;85.25;92514.47;5068284;28;20021;-34
2022/09/18 02:39:43;;;;;;;0.20;0.20;;;;;;;11.39;84.29;92523.00;5077574;28;20036;-34
2022/09/18 02:42:31;;;;;;;0.20;0.20;;;;;;;11.21;84.90;92523.66;5066479;28;20027;-33
2022/09/18 02:45:21;;;;;;;0.20;0.20;;;;;;;11.15;84.81;92545.31;5087385;28;20511;-34
2022/09/18 02:48:01;;;;;;;0.22;0.22;;;;;;;11.13;84.24;92562.44;5089477;28;20012;-33
2022/09/18 02:50:47;;;;;;;0.55;0.55;;;;;;;11.08;84.27;92579.28;5085955;28;20110;-33
2022/09/18 02:53:17;;;;;;;0.17;0.17;;;;;;;11.09;84.26;92583.50;5069994;28;20020;-33
2022/09/18 02:56:01;;;;;;;0.30;0.30;;;;;;;11.18;83.81;92577.28;5068692;28;20042;-33
2022/09/18 02:58:28;;;;;;;0.20;0.20;;;;;;;11.14;84.24;92588.03;5082377;28;20081;-33
2022/09/18 03:00:57;;;;;;;0.68;0.63;;;;;;;11.12;82.89;92598.94;5068515;28;20030;-33
2022/09/18 03:03:26;;;;;;;0.30;0.30;;;;;;;11.09;82.96;92606.31;5072595;28;20024;-33
2022/09/18 03:05:51;;;;;;;;;;;;;;;11.12;83.23;92605.19;5090168;28;20032;-33
2022/09/18 03:08:20;;;;;;;0.20;0.20;;;;;;;11.01;82.51;92616.00;5086470;28;20395;-33
2022/09/18 03:10:45;;;;;;;0.20;0.20;;;;;;;10.98;82.50;92619.94;5066786;28;20028;-33
2022/09/18 03:13:11;;;;;;;0.20;0.20;;;;;;;10.76;82.71;92629.94;5085006;28;20040;-34
2022/09/18 03:15:36;;;;;;;0.73;0.45;;;;;;;10.89;82.30;92640.66;5079968;28;20028;-33
2022/09/18 03:18:02;;;;;;;0.43;0.43;;;;;;;11.00;83.26;92631.13;5082745;28;20025;-33
2022/09/18 03:20:27;;;;;;;0.32;0.32;;;;;;;11.08;82.32;92657.38;5083186;28;20024;-34
2022/09/18 03:22:53;;;;;;;0.25;0.25;;;;;;;11.21;82.41;92664.56;5087449;28;20020;-34
2022/09/18 03:25:18;;;;;;;0.30;0.30;;;;;;;11.31;81.14;92679.91;5088992;28;20077;-34
2022/09/18 03:27:43;;;;;;;0.20;0.20;;;;;;;11.13;79.73;92663.94;5089379;28;20027;-35
2022/09/18 03:30:09;;;;;;;0.38;0.38;;;;;;;10.98;80.41;92658.59;5087017;28;20031;-34
2022/09/18 03:32:35;;;;;;;0.20;0.20;;;;;;;11.00;80.41;92667.03;5085398;28;20032;-34
2022/09/18 03:35:00;;;;;;;0.38;0.38;;;;;;;10.92;79.81;92658.84;5087344;28;20021;-34
2022/09/18 03:37:26;;;;;;;0.25;0.25;;;;;;;11.00;78.90;92665.00;5085118;28;20456;-34
2022/09/18 03:39:51;;;;;;;0.20;0.20;;;;;;;10.94;79.37;92663.78;5076874;28;20021;-34
2022/09/18 03:42:16;;;;;;;0.20;0.20;;;;;;;11.00;80.47;92673.28;5083167;28;20027;-34
2022/09/18 03:44:42;;;;;;;0.20;0.20;;;;;;;11.00;79.64;92664.28;5086934;28;20028;-34
2022/09/18 03:47:10;;;;;;;0.20;0.20;;;;;;;10.91;78.76;92667.69;5078974;28;20024;-34
2022/09/18 03:49:36;;;;;;;0.20;0.20;;;;;;;10.97;79.07;92682.72;5063267;28;20103;-34
2022/09/18 03:52:01;;;;;;;0.10;0.10;;;;;;;11.03;78.65;92682.47;5082677;28;20093;-34
2022/09/18 03:54:27;;;;;;;0.20;0.20;;;;;;;11.06;78.76;92686.84;5073576;28;20013;-34
2022/09/18 03:56:52;;;;;;;0.28;0.28;;;;;;;11.08;77.86;92681.50;5082263;28;20020;-34
2022/09/18 03:59:18;;;;;;;0.10;0.10;;;;;;;11.04;77.80;92694.97;5082726;28;20098;-34
2022/09/18 04:01:43;;;;;;;0.95;0.47;;;;;;;10.73;77.45;92697.34;5080505;28;20035;-34
2022/09/18 04:04:09;;;;;;;0.20;0.20;;;;;;;10.68;77.83;92690.75;5086934;28;20489;-34
2022/09/18 04:06:34;;;;;;;0.20;0.20;;;;;;;10.62;77.88;92684.00;5083351;28;20047;-34
2022/09/18 04:08:59;;;;;;;0.20;0.20;;;;;;;10.51;77.40;92687.97;5075396;28;20021;-34
2022/09/18 04:11:25;;;;;;;0.17;0.17;;;;;;;10.52;78.67;92697.00;5083006;28;20080;-34
2022/09/18 04:13:50;;;;;;;0.28;0.28;;;;;;;10.51;77.99;92712.09;5082113;28;20032;-34
2022/09/18 04:16:16;;;;;;;0.20;0.20;;;;;;;10.48;78.68;92722.22;5076847;28;20439;-34
2022/09/18 04:18:41;;;;;;;0.30;0.30;;;;;;;10.25;79.27;92726.47;5079859;28;20032;-35
2022/09/18 04:21:07;;;;;;;0.20;0.20;;;;;;;10.30;78.53;92731.03;5082751;28;20044;-34
2022/09/18 04:23:32;;;;;;;0.20;0.20;;;;;;;10.26;77.93;92747.25;5081199;28;20461;-35
2022/09/18 04:25:58;;;;;;;0.20;0.20;;;;;;;10.24;77.10;92763.66;5083485;28;20499;-35
2022/09/18 04:28:23;;;;;;;0.65;0.65;;;;;;;10.12;77.59;92771.63;5081756;28;20519;-35
2022/09/18 04:30:49;;;;;;;0.40;0.40;;;;;;;10.08;77.35;92763.00;5082769;28;20074;-35
2022/09/18 04:33:14;;;;;;;0.65;0.45;;;;;;;10.11;77.01;92781.22;5083025;28;20691;-34
2022/09/18 04:35:40;;;;;;;0.25;0.25;;;;;;;9.98;77.03;92789.72;5083768;28;20032;-34
2022/09/18 04:38:07;;;;;;;0.20;0.20;;;;;;;9.85;77.39;92781.72;5082157;28;20036;-34
2022/09/18 04:40:32;;;;;;;0.30;0.30;;;;;;;9.80;77.11;92779.91;5084299;28;20028;-34
2022/09/18 04:42:57;;;;;;;0.20;0.20;;;;;;;9.76;77.22;92782.31;5075413;28;20013;-34
2022/09/18 04:45:23;;;;;;;0.38;0.38;;;;;;;9.71;77.96;92797.75;5079090;28;20040;-34
2022/09/18 04:47:49;;;;;;;3.58;0.73;;;;;;;9.70;77.36;92795.56;5083863;28;20081;-34
2022/09/18 04:50:14;;;;;;;0.20;0.20;;;;;;;9.68;77.37;92798.88;5081352;28;20052;-34
2022/09/18 04:52:40;;;;;;;2.33;2.15;;;;;;;9.63;77.04;92810.13;5077851;28;20024;-34
2022/09/18 04:55:05;;;;;;;12.60;1.17;;;;;;;9.66;76.98;92817.25;5081127;28;20044;-33
2022/09/18 04:57:31;;;;;;;0.30;0.30;;;;;;;9.61;76.92;92807.19;5082185;28;20580;-34
2022/09/18 04:59:57;;;;;;;0.30;0.30;;;;;;;9.78;77.32;92821.81;5078691;28;20017;-34
2022/09/18 05:02:23;;;;;;;0.30;0.30;;;;;;;9.80;75.63;92812.97;5076884;28;20414;-34
2022/09/18 05:04:49;;;;;;;0.28;0.28;;;;;;;9.68;75.87;92828.47;5088832;28;20016;-34
2022/09/18 05:07:15;;;;;;;0.40;0.40;;;;;;;9.85;75.31;92842.38;5085208;28;20043;-35
2022/09/18 05:09:40;;;;;;;0.20;0.20;;;;;;;9.81;75.40;92850.28;5082920;28;20578;-34
2022/09/18 05:12:06;;;;;;;0.40;0.40;;;;;;;9.75;75.44;92855.25;5081607;28;20134;-33
2022/09/18 05:14:31;;;;;;;0.30;0.30;;;;;;;9.80;75.68;92857.81;5088646;28;20039;-34
2022/09/18 05:16:57;;;;;;;0.20;0.20;;;;;;;9.79;76.50;92872.16;5078749;28;20036;-34
2022/09/18 05:19:23;;;;;;;0.28;0.28;;;;;;;9.78;74.82;92876.94;5082525;28;20023;-34
2022/09/18 05:21:49;;;;;;;0.20;0.20;;;;;;;9.69;75.05;92852.72;5088921;28;20028;-34
2022/09/18 05:24:16;;;;;;;0.90;0.90;;;;;;;9.81;74.08;92875.09;5081657;28;20024;-34
2022/09/18 05:26:42;;;;;;;1.33;0.75;;;;;;;9.84;74.35;92882.25;5084487;28;20523;-34
2022/09/18 05:29:08;;;;;;;0.40;0.40;;;;;;;9.87;74.73;92886.66;5074747;28;20476;-34
2022/09/18 05:31:33;;;;;;;0.43;0.43;;;;;;;9.80;74.74;92874.38;5083929;28;20028;-34
2022/09/18 05:33:59;;;;;;;0.47;0.47;;;;;;;9.84;74.60;92879.50;5082931;28;20021;-35
2022/09/18 05:36:24;;;;;;;0.50;0.50;;;;;;;9.85;74.39;92892.72;5082118;28;20036;-35
2022/09/18 05:38:50;;;;;;;0.98;0.95;;;;;;;9.75;73.56;92905.63;5089380;28;20044;-34
2022/09/18 05:41:15;;;;;;;1.15;1.15;;;;;;;9.93;74.65;92906.47;5080446;28;20073;-34
2022/09/18 05:43:44;;;;;;;0.63;0.63;;;;;;;9.90;74.15;92913.09;5081859;28;20028;-34
2022/09/18 05:46:09;;;;;;;1.13;1.02;;;;;;;9.76;73.84;92914.63;5083764;28;20459;-34
2022/09/18 05:48:35;;;;;;;0.40;0.40;;;;;;;9.60;75.28;92915.94;5075394;28;20040;-34
2022/09/18 05:51:00;;;;;;;0.20;0.20;;;;;;;9.69;75.95;92923.66;5080573;28;20089;-34
2022/09/18 05:53:26;;;;;;;1.20;1.10;;;;;;;9.69;75.35;92918.13;5077643;28;20102;-34
2022/09/18 05:55:51;;;;;;;2.05;0.88;;;;;;;9.58;75.72;92921.28;5078767;28;20028;-34
2022/09/18 05:58:18;;;;;;;0.85;0.85;;;;;;;9.62;75.46;92924.41;5082321;28;20474;-34
2022/09/18 06:00:44;;;;;;;0.82;0.82;;;;;;;9.56;75.14;92932.88;5085926;28;20035;-34
2022/09/18 06:03:14;;;;;;;0.20;0.20;;;;;;;9.65;76.43;92934.31;5085246;28;20415;-34
2022/09/18 06:05:40;;;;;;;1.33;0.95;;;;;;;9.74;75.99;92925.47;5093486;28;20402;-34
2022/09/18 06:08:08;;;;;;;0.75;0.65;;;;;;;9.74;75.96;92931.00;5078177;28;20020;-34
2022/09/18 06:10:38;;;;;;;0.28;0.28;;;;;;;9.73;76.53;92932.28;5081150;28;20451;-34
2022/09/18 06:13:14;;;;;;;0.30;0.30;;;;;;;9.84;75.64;92940.88;5074437;28;20533;-34
2022/09/18 06:15:44;;;;;;;0.40;0.40;;;;;;;9.97;76.37;92933.66;5080727;28;20031;-34
2022/09/18 06:18:09;;;;;;;0.47;0.47;;;;;;;9.92;74.90;92935.34;5083573;28;20024;-34
2022/09/18 06:20:35;;;;;;;0.60;0.60;;;;;;;9.96;76.20;92923.94;5088657;28;20089;-34
2022/09/18 06:23:01;;;;;;;0.20;0.20;;;;;;;10.09;76.76;92931.97;5084138;28;20028;-33
2022/09/18 06:25:27;;;;;;;0.20;0.20;;;;;;;9.99;75.36;92939.34;5088143;28;20028;-34
2022/09/18 06:27:57;;;;;;;0.30;0.30;;;;;;;10.03;75.60;92921.13;5068743;28;20024;-33
2022/09/18 06:30:25;;;;;;;0.10;0.10;;;;;;;10.03;75.30;92932.16;5079302;28;20530;-34
2022/09/18 06:32:50;;;;;;;0.70;0.70;;;;;;;9.94;74.51;92941.75;5080105;28;20586;-34
2022/09/18 06:35:16;;;;;;;0.77;0.45;;;;;;;9.99;75.11;92956.63;5067115;28;20103;-34
2022/09/18 06:37:41;;;;;;;1.00;0.60;;;;;;;9.81;74.66;92933.00;5083898;28;20098;-34
2022/09/18 06:40:07;;;;;;;0.47;0.47;;;;;;;9.94;74.72;92957.56;5083505;28;20101;-34
2022/09/18 06:42:33;;;;;;;0.30;0.30;;;;;;;9.96;74.16;92966.03;5086349;28;20523;-34
2022/09/18 06:44:58;;;;;;;0.40;0.40;;;;;;;9.66;74.69;92957.81;5084623;28;20430;-34
2022/09/18 06:47:24;;;;;;;0.35;0.35;;;;;;;9.68;75.39;92974.56;5079646;28;20039;-34
2022/09/18 06:49:49;;;;;;;2.83;1.35;;;;;;;8.78;75.99;92856.97;5087289;28;20090;-34
2022/09/18 06:52:14;;;;;;;0.70;0.40;;;;;;;9.74;76.03;92981.34;5083983;28;20393;-34
2022/09/18 06:54:40;;;;;;;0.95;0.95;;;;;;;9.73;75.65;92984.66;5083985;28;20024;-34
2022/09/18 06:57:06;;;;;;;0.40;0.40;;;;;;;9.69;74.82;92971.25;5083913;28;20020;-34
2022/09/18 06:59:31;;;;;;;0.45;0.45;;;;;;;9.82;75.88;92986.84;5079970;28;20056;-34
2022/09/18 07:01:57;;;;;;;4.97;1.25;;;;;;;9.81;75.34;92996.41;5080001;28;20109;-35
2022/09/18 07:04:22;;;;;;;0.30;0.30;;;;;;;9.81;74.17;92990.91;5087535;28;20034;-34
2022/09/18 07:06:48;;;;;;;0.50;0.50;;;;;;;9.83;73.77;92997.31;5090552;28;20558;-34
2022/09/18 07:09:13;;;;;;;0.20;0.20;;;;;;;9.77;74.11;92999.53;5084881;28;20024;-34
2022/09/18 07:11:39;;;;;;;0.45;0.45;;;;;;;9.78;74.28;93003.75;5087275;28;20024;-34
2022/09/18 07:14:06;;;;;;;0.20;0.20;;;;;;;9.89;73.52;93003.38;5091508;28;20491;-35
2022/09/18 07:16:32;;;;;;;1.00;1.00;;;;;;;10.06;73.66;93005.53;5088440;28;20019;-34
2022/09/18 07:18:58;;;;;;;0.20;0.20;;;;;;;10.14;72.44;93011.78;5091134;28;20537;-34
2022/09/18 07:21:23;;;;;;;0.40;0.40;;;;;;;10.26;73.79;93010.09;5089165;28;20080;-34
2022/09/18 07:23:49;;;;;;;0.60;0.60;;;;;;;10.42;72.79;93017.00;5085896;28;20488;-35
2022/09/18 07:26:14;;;;;;;0.28;0.28;;;;;;;10.40;72.01;93021.63;5085882;28;20055;-34
2022/09/18 07:28:40;;;;;;;0.20;0.20;;;;;;;10.51;71.81;93021.94;5082922;28;20020;-34
2022/09/18 07:31:05;;;;;;;0.40;0.40;;;;;;;10.52;70.90;93014.41;5090885;28;20019;-34
2022/09/18 07:33:31;;;;;;;0.30;0.30;;;;;;;10.67;71.36;93011.59;5070233;28;20083;-35
2022/09/18 07:36:04;;;;;;;0.20;0.20;;;;;;;10.54;69.51;93001.53;5094599;28;20027;-35
2022/09/18 07:38:29;;;;;;;0.20;0.20;;;;;;;10.75;69.92;93014.28;5085917;28;20127;-34
2022/09/18 07:40:55;;;;;;;0.40;0.40;;;;;;;10.84;69.36;93019.22;5082236;28;20462;-34
2022/09/18 07:43:21;;;;;;;1.27;0.90;;;;;;;10.81;69.45;93017.56;5082491;28;20032;-34
2022/09/18 07:45:46;;;;;;;1.35;1.05;;;;;;;10.94;68.75;93015.28;5084749;28;20519;-34
2022/09/18 07:48:12;;;;;;;0.32;0.32;;;;;;;10.83;69.79;93007.44;5075348;28;20685;-34
2022/09/18 07:50:38;;;;;;;0.38;0.38;;;;;;;11.09;69.65;93019.97;5087021;28;20051;-34
2022/09/18 07:53:04;;;;;;;0.20;0.20;;;;;;;11.19;67.62;93031.91;5068004;28;20038;-34
2022/09/18 07:55:31;;;;;;;0.32;0.32;;;;;;;11.25;66.93;93038.66;5085056;28;20016;-35
2022/09/18 07:58:01;;;;;;;0.40;0.40;;;;;;;11.29;68.05;93044.53;5091068;28;20559;-35
2022/09/18 08:00:30;;;;;;;1.00;0.68;;;;;;;11.22;67.91;93047.34;5069368;28;20022;-35
2022/09/18 08:03:04;;;;;;;0.20;0.20;;;;;;;11.21;67.39;93051.41;5085039;28;20094;-34
2022/09/18 08:05:30;;;;;;;1.63;0.88;;;;;;;11.20;67.97;93060.97;5091955;28;20110;-34
2022/09/18 08:07:55;;;;;;;0.55;0.55;;;;;;;11.17;67.68;93056.59;5094861;28;20095;-34
2022/09/18 08:10:21;;;;;;;0.20;0.20;;;;;;;11.13;66.53;93047.97;5077268;28;20454;-35
2022/09/18 08:12:46;;;;;;;0.20;0.20;;;;;;;11.07;67.27;93052.94;5094653;28;20054;-34
2022/09/18 08:15:12;;;;;;;0.20;0.20;;;;;;;11.04;66.47;93043.03;5090900;28;20027;-34
2022/09/18 08:17:45;;;;;;;0.20;0.20;;;;;;;11.22;66.32;93064.66;5087874;28;20084;-34
2022/09/18 08:20:11;;;;;;;0.40;0.40;;;;;;;11.41;66.91;93050.34;5081082;28;20534;-34
2022/09/18 08:22:40;;;;;;;0.20;0.20;;;;;;;11.54;65.30;93057.63;5082445;28;20154;-34
2022/09/18 08:25:06;;;;;;;;;;;;;;;11.58;64.44;93063.50;5083477;28;20113;-34
2022/09/18 08:27:35;;;;;;;0.35;0.35;;;;;;;11.55;64.50;93056.31;5095181;28;19977;-34
2022/09/18 08:30:01;;;;;;;0.20;0.20;;;;;;;11.59;65.17;93068.44;5086916;28;20055;-34
2022/09/18 08:32:26;;;;;;;0.60;0.60;;;;;;;11.44;63.92;93054.75;5051569;28;20056;-34
2022/09/18 08:34:52;;;;;;;0.20;0.20;;;;;;;11.65;64.83;93063.44;5080475;28;20415;-34
2022/09/18 08:37:17;;;;;;;0.25;0.25;;;;;;;11.67;62.95;93068.44;5081964;28;20579;-34
2022/09/18 08:39:43;;;;;;;0.30;0.30;;;;;;;11.58;62.82;93077.31;5073647;28;20021;-34
2022/09/18 08:42:14;;;;;;;0.20;0.20;;;;;;;11.57;62.08;93067.53;5065612;28;20117;-34
2022/09/18 08:44:53;;;;;;;0.30;0.30;;;;;;;11.30;62.63;93043.22;5076393;28;20024;-34
2022/09/18 08:47:35;;;;;;;0.20;0.20;;;;;;;11.65;63.46;93080.00;5066070;28;20054;-34
2022/09/18 08:50:08;;;;;;;0.43;0.43;;;;;;;11.71;62.74;93069.50;5075242;28;20411;-34
2022/09/18 08:52:38;;;;;;;0.20;0.20;;;;;;;11.74;62.16;93062.09;5056942;28;20128;-34
2022/09/18 08:55:26;;;;;;;0.30;0.30;;;;;;;11.74;62.84;93068.38;5062357;28;20040;-35
2022/09/18 08:58:14;;;;;;;0.20;0.20;;;;;;;11.98;61.69;93072.41;5073298;28;20115;-34
2022/09/18 09:00:53;;;;;;;0.20;0.20;;;;;;;12.04;61.98;93067.38;5071433;28;20056;-34
2022/09/18 09:03:31;;;;;;;0.10;0.10;;;;;;;12.12;60.85;93074.31;5053036;28;20559;-34
2022/09/18 09:06:18;;;;;;;0.30;0.30;;;;;;;12.04;62.79;93059.09;5061024;28;20119;-34
2022/09/18 09:08:49;;;;;;;0.20;0.20;;;;;;;12.09;62.04;93063.63;5079480;28;20081;-34
2022/09/18 09:11:43;;;;;;;0.25;0.25;;;;;;;12.04;61.87;93070.88;5075211;28;20035;-34
2022/09/18 09:14:25;;;;;;;0.20;0.20;;;;;;;12.40;62.08;93080.69;5070087;28;20039;-34
2022/09/18 09:16:55;;;;;;;0.52;0.52;;;;;;;12.45;61.20;93057.56;5074665;28;20028;-34
2022/09/18 09:19:48;;;;;;;0.20;0.20;;;;;;;12.60;61.44;93068.47;5057519;28;20035;-34
2022/09/18 09:22:20;;;;;;;0.20;0.20;;;;;;;12.85;61.62;93069.09;5060417;28;20035;-34
2022/09/18 09:24:54;;;;;;;0.20;0.20;;;;;;;13.17;59.65;93074.41;5058819;28;20697;-33
2022/09/18 09:27:24;;;;;;;0.20;0.20;;;;;;;13.63;58.69;93072.47;5076828;28;20089;-34
2022/09/18 09:29:59;;;;;;;0.20;0.20;;;;;;;13.79;58.95;93072.97;5079272;28;20102;-34
2022/09/18 09:32:54;;;;;;;0.20;0.20;;;;;;;14.48;56.18;93072.56;5061512;28;20059;-34
2022/09/18 09:35:29;;;;;;;0.45;0.45;;;;;;;15.36;56.40;93081.00;5055197;28;20027;-34
2022/09/18 09:37:55;;;;;;;0.10;0.10;;;;;;;15.88;51.54;93068.69;5073152;28;20206;-34
2022/09/18 09:40:31;;;;;;;0.35;0.35;;;;;;;15.75;52.12;93088.69;5061451;28;20020;-34
2022/09/18 09:43:03;;;;;;;0.20;0.20;;;;;;;15.15;52.44;93087.19;5081224;28;20524;-34
2022/09/18 09:45:43;;;;;;;0.15;0.15;;;;;;;14.59;53.08;93083.09;5063404;28;20039;-34
2022/09/18 09:48:21;;;;;;;0.68;0.68;;;;;;;14.41;54.31;93090.84;5084352;28;20031;-34
2022/09/18 09:51:02;;;;;;;0.22;0.22;;;;;;;14.09;54.97;93055.09;5065174;28;20118;-34
2022/09/18 09:53:28;;;;;;;0.10;0.10;;;;;;;14.33;55.34;93090.97;5066023;28;20032;-34
2022/09/18 09:56:37;;;;;;;0.30;0.30;;;;;;;14.08;55.19;93087.66;5090224;28;20051;-34
2022/09/18 09:59:08;;;;;;;0.10;0.10;;;;;;;13.93;56.24;93087.91;5008229;28;20148;-34
2022/09/18 10:02:03;;;;;;;0.20;0.20;;;;;;;14.11;56.73;93080.22;5008269;28;20030;-34
2022/09/18 10:04:52;;;;;;;0.20;0.20;;;;;;;13.91;54.93;93082.22;5063978;28;20042;-34
2022/09/18 10:07:22;;;;;;;0.10;0.10;;;;;;;13.83;54.00;93081.59;5064577;28;20389;-34
2022/09/18 10:09:56;;;;;;;0.15;0.15;;;;;;;13.62;54.42;93065.44;5081649;28;20059;-34
2022/09/18 10:12:49;;;;;;;0.40;0.40;;;;;;;14.07;54.85;93088.25;5088588;28;20453;-34
2022/09/18 10:15:34;;;;;;;0.40;0.40;;;;;;;14.89;52.59;93088.09;5086935;28;20110;-35
2022/09/18 10:18:03;;;;;;;0.28;0.28;;;;;;;14.65;53.27;93064.84;5063071;28;20459;-34
2022/09/18 10:20:31;;;;;;;0.50;0.50;;;;;;;14.89;52.35;93074.94;5060433;28;20714;-35
2022/09/18 10:23:37;;;;;;;0.10;0.10;;;;;;;15.04;51.56;93093.34;5067342;28;20035;-34
2022/09/18 10:26:04;;;;;;;0.10;0.10;;;;;;;14.72;52.74;93091.75;4999856;28;20456;-34
2022/09/18 10:28:29;;;;;;;0.60;0.57;;;;;;;14.67;52.28;93095.53;5005003;28;20057;-34
2022/09/18 10:31:11;;;;;;;0.10;0.10;;;;;;;14.94;51.11;93082.22;5037145;28;20044;-34
2022/09/18 10:33:40;;;;;;;0.10;0.10;;;;;;;15.31;50.23;93101.50;5078764;28;20039;-34
2022/09/18 10:36:08;;;;;;;;;;;;;;;15.44;47.98;93095.53;5090717;28;20402;-34
2022/09/18 10:38:36;;;;;;;0.75;0.75;;;;;;;15.09;49.90;93098.59;5089910;28;19916;-35
2022/09/18 10:41:26;;;;;;;0.20;0.20;;;;;;;14.82;50.00;93106.38;5079239;28;20142;-38
2022/09/18 10:43:52;;;;;;;0.20;0.20;;;;;;;14.58;51.82;93095.53;5087312;28;20464;-35
2022/09/18 10:46:23;;;;;;;0.25;0.25;;;;;;;14.77;50.70;93109.47;5085284;28;20024;-34
2022/09/18 10:48:49;;;;;;;3.30;0.63;;;;;;;15.07;49.72;93106.78;5076907;28;20024;-34
2022/09/18 10:51:17;;;;;;;0.40;0.40;;;;;;;16.65;47.24;93115.69;5083366;28;20035;-34
2022/09/18 10:53:42;;;;;;;1.83;0.50;;;;;;;17.69;44.45;93102.19;5068111;28;20384;-35
2022/09/18 10:56:16;;;;;;;0.20;0.20;;;;;;;18.46;41.38;93102.00;5082773;28;20031;-35
2022/09/18 10:58:43;;;;;;;0.70;0.70;;;;;;;18.21;42.26;93115.13;5082825;28;20059;-35
2022/09/18 11:01:09;;;;;;;0.50;0.50;;;;;;;18.04;45.12;93111.34;5078944;28;20017;-34
2022/09/18 11:03:36;;;;;;;0.17;0.17;;;;;;;18.64;41.58;93128.25;5068225;28;20032;-35
2022/09/18 11:06:22;;;;;;;0.50;0.50;;;;;;;19.17;42.47;93126.44;5083215;28;20454;-35
2022/09/18 11:08:51;;;;;;;0.30;0.30;;;;;;;19.02;38.70;93121.38;5064171;28;20024;-35
2022/09/18 11:11:20;;;;;;;;;;;;;;;18.39;40.45;93125.31;5062897;28;20036;-35
2022/09/18 11:13:52;;;;;;;0.65;0.65;;;;;;;18.07;42.71;93126.16;5085771;28;19912;-34
2022/09/18 11:16:24;;;;;;;0.63;0.40;;;;;;;19.19;42.28;93129.34;5068845;28;20112;-35
2022/09/18 11:19:00;;;;;;;0.98;0.80;;;;;;;19.78;38.84;93138.25;5048159;28;20028;-35
2022/09/18 11:21:26;;;;;;;0.38;0.38;;;;;;;19.86;38.81;93139.44;5081649;28;20173;-35
2022/09/18 11:24:04;;;;;;;1.58;0.88;;;;;;;19.79;38.48;93128.53;5078911;28;20032;-35
2022/09/18 11:26:30;;;;;;;1.45;1.02;;;;;;;19.47;39.73;93130.25;5089492;28;20023;-35
2022/09/18 11:29:42;;;;;;;0.43;0.32;;;;;;;19.38;38.16;93142.34;5079074;28;20028;-35
2022/09/18 11:32:14;;;;;;;0.40;0.40;;;;;;;18.40;39.69;93134.44;5069615;28;20432;-34
2022/09/18 11:35:01;;;;;;;0.30;0.30;;;;;;;18.87;41.95;93136.63;5064728;28;20024;-34
2022/09/18 11:37:36;;;;;;;0.30;0.30;;;;;;;19.32;39.59;93122.34;5061048;28;20052;-34
2022/09/18 11:40:06;;;;;;;0.85;0.85;;;;;;;19.23;39.94;93135.16;5061709;28;20031;-34
2022/09/18 11:42:32;;;;;;;0.20;0.20;;;;;;;18.89;39.91;93139.53;5064247;28;20058;-34
2022/09/18 11:45:21;;;;;;;0.43;0.43;;;;;;;18.84;39.90;93137.13;5073224;28;20098;-34
2022/09/18 11:47:59;;;;;;;1.67;0.45;;;;;;;18.99;40.43;93130.28;5039550;28;20420;-34
2022/09/18 11:50:29;;;;;;;20.67;0.87;;;;;;;18.53;41.34;93147.84;5083553;28;20032;-34
2022/09/18 11:52:59;;;;;;;4.05;1.33;;;;;;;18.64;42.03;93135.91;5081469;28;20450;-34